Time;durP1;ratioP1;P1;durP2;ratioP2;P2;SDS_P1;SDS_P2;PMS_P1;PMS_P2;Temp;Humidity;BMP_temperature;BMP_pressure;BME280_temperature;BME280_humidity;BME280_pressure;Samples;Min_cycle;Max_cycle;Signal;HPM_P1;HPM_P2
2022/06/16 00:00:14;;;;;;;;;;;;;;;-144.99;78.37;52276.88;5081511;28;20066;-77
2022/06/16 00:02:41;;;;;;;;;;;;;;;-144.99;78.64;52264.66;5091072;28;19924;-77
2022/06/16 00:05:09;;;;;;;;;;;;;;;-144.99;79.12;52254.47;5090504;28;19923;-76
2022/06/16 00:07:36;;;;;;;;;;;;;;;-144.99;79.30;52280.97;5076095;28;20018;-75
2022/06/16 00:10:03;;;;;;;;;;;;;;;-144.99;79.78;52252.44;5084867;28;19932;-77
2022/06/16 00:12:30;;;;;;;;;;;;;;;-144.99;80.25;52236.13;5086434;28;20420;-78
2022/06/16 00:14:57;;;;;;;;;;;;;;;-144.99;80.38;52223.88;5088405;28;19939;-76
2022/06/16 00:17:24;;;;;;;;;;;;;;;-144.99;80.75;52268.72;5087730;28;19985;-77
2022/06/16 00:19:51;;;;;;;;;;;;;;;-144.99;81.21;52264.66;5080023;28;19966;-78
2022/06/16 00:22:19;;;;;;;;;;;;;;;-144.99;81.42;52223.88;5081467;28;20049;-78
2022/06/16 00:24:45;;;;;;;;;;;;;;;-144.99;81.76;52301.34;5089343;28;19931;-77
2022/06/16 00:27:12;;;;;;;;;;;;;;;-144.99;82.13;52260.56;5091033;28;20121;-77
2022/06/16 00:29:38;;;;;;;;;;;;;;;-144.99;82.26;52234.09;5088113;28;20039;-76
2022/06/16 00:32:05;;;;;;;;;;;;;;;-144.99;82.39;52264.66;5076530;28;19925;-80
2022/06/16 00:34:32;;;;;;;;;;;;;;;-144.99;82.42;52232.03;5097063;28;19981;-80
2022/06/16 00:36:59;;;;;;;;;;;;;;;-144.99;82.67;52254.47;5094106;28;19928;-77
2022/06/16 00:39:27;;;;;;;;;;;;;;;-144.99;82.77;52256.50;5094415;28;19946;-79
2022/06/16 00:41:53;;;;;;;;;;;;;;;-144.99;83.11;52260.56;5097136;28;20259;-78
2022/06/16 00:44:35;;;;;;;;;;;;;;;-144.99;83.27;52252.44;5097260;28;19964;-79
2022/06/16 00:47:01;;;;;;;;;;;;;;;-144.99;83.92;52240.19;5087416;28;19977;-76
2022/06/16 00:49:29;;;;;;;;;;;;;;;-144.99;83.82;52252.44;5089386;28;19923;-81
2022/06/16 00:51:57;;;;;;;;;;;;;;;-144.99;84.09;52276.88;5110837;28;19943;-82
2022/06/16 00:54:25;;;;;;;;;;;;;;;-144.99;84.22;52285.03;5090158;28;20274;-80
2022/06/16 00:56:55;;;;;;;;;;;;;;;-144.99;84.43;52293.19;5101921;28;19991;-80
2022/06/16 00:59:22;;;;;;;;;;;;;;;-144.99;84.38;52289.13;5084343;28;20318;-78
2022/06/16 01:01:49;;;;;;;;;;;;;;;-144.99;84.63;52219.81;5080528;28;19939;-79
2022/06/16 01:07:02;;;;;;;;;;;;;;;-144.99;85.49;52289.13;5095399;28;19970;-81
2022/06/16 01:09:30;;;;;;;;;;;;;;;-144.99;85.39;52272.81;5100083;28;19934;-80
2022/06/16 01:14:55;;;;;;;;;;;;;;;-144.99;85.58;52272.81;5083890;28;19935;-79
2022/06/16 01:17:26;;;;;;;;;;;;;;;-144.99;85.58;52260.56;5100188;28;19932;-78
2022/06/16 01:20:13;;;;;;;;;;;;;;;-144.99;85.74;52280.97;5080832;28;19933;-79
2022/06/16 01:23:04;;;;;;;;;;;;;;;-144.99;86.04;52280.97;5088555;28;20423;-79
2022/06/16 01:25:39;;;;;;;;;;;;;;;-144.99;86.25;52240.19;5088110;28;19981;-80
2022/06/16 01:28:25;;;;;;;;;;;;;;;-144.99;86.42;52256.50;5091597;28;19940;-81
2022/06/16 01:30:57;;;;;;;;;;;;;;;-144.99;86.69;52268.72;5082055;28;19924;-79
2022/06/16 01:33:26;;;;;;;;;;;;;;;-144.99;87.02;52280.97;5094296;28;20613;-80
2022/06/16 01:35:58;;;;;;;;;;;;;;;-144.99;86.97;52252.44;5093952;28;23352;-78
2022/06/16 01:38:32;;;;;;;;;;;;;;;-144.99;87.25;52305.41;5084371;28;19947;-78
2022/06/16 01:41:05;;;;;;;;;;;;;;;-144.99;87.16;52289.13;5082746;28;19932;-79
2022/06/16 01:43:35;;;;;;;;;;;;;;;-144.99;87.32;52256.50;5075620;28;19951;-77
2022/06/16 01:46:06;;;;;;;;;;;;;;;-144.99;87.71;52278.91;5092543;28;20452;-77
2022/06/16 01:48:35;;;;;;;;;;;;;;;-144.99;87.65;52293.19;5089039;28;19939;-77
2022/06/16 01:51:06;;;;;;;;;;;;;;;-144.99;87.59;52268.72;5092071;28;20148;-78
2022/06/16 01:53:36;;;;;;;;;;;;;;;-144.99;87.88;52244.28;5088898;28;19928;-79
2022/06/16 01:56:15;;;;;;;;;;;;;;;-144.99;88.03;52254.47;5088120;28;20432;-76
2022/06/16 01:58:44;;;;;;;;;;;;;;;-144.99;88.50;52293.19;5085044;28;19924;-77
2022/06/16 02:01:15;;;;;;;;;;;;;;;-144.99;88.44;52313.56;5084845;28;19955;-79
2022/06/16 02:03:45;;;;;;;;;;;;;;;-144.99;88.55;52268.72;5096066;28;19925;-76
2022/06/16 02:06:14;;;;;;;;;;;;;;;-144.99;88.72;52272.81;5103049;28;20381;-77
2022/06/16 02:08:42;;;;;;;;;;;;;;;-144.99;88.94;52256.50;5095719;28;19975;-77
2022/06/16 02:11:10;;;;;;;;;;;;;;;-144.99;89.13;52276.88;5094643;28;20352;-78
2022/06/16 02:13:41;;;;;;;;;;;;;;;-144.99;89.51;52264.66;5094584;28;19959;-79
2022/06/16 02:16:09;;;;;;;;;;;;;;;-144.99;89.86;52244.28;5098320;28;20432;-79
2022/06/16 02:18:40;;;;;;;;;;;;;;;-144.99;89.84;52266.69;5077082;28;19928;-75
2022/06/16 02:21:09;;;;;;;;;;;;;;;-144.99;89.75;52254.47;5082749;28;20018;-75
2022/06/16 02:23:36;;;;;;;;;;;;;;;-144.99;89.31;52268.72;5082431;28;20391;-78
2022/06/16 02:26:03;;;;;;;;;;;;;;;-144.99;89.34;52285.03;5099384;28;19923;-75
2022/06/16 02:28:29;;;;;;;;;;;;;;;-144.99;89.65;52280.97;5084141;28;19935;-77
2022/06/16 02:31:03;;;;;;;;;;;;;;;-144.99;90.02;52252.44;5084580;28;20363;-76
2022/06/16 02:33:35;;;;;;;;;;;;;;;-144.99;90.29;52244.28;5088710;28;20454;-79
2022/06/16 02:36:08;;;;;;;;;;;;;;;-144.99;90.35;52248.34;5094734;28;19924;-76
2022/06/16 02:38:42;;;;;;;;;;;;;;;-144.99;90.43;52297.25;5084785;28;19946;-77
2022/06/16 02:41:13;;;;;;;;;;;;;;;-144.99;90.47;52248.34;5096189;28;19931;-79
2022/06/16 02:43:47;;;;;;;;;;;;;;;-144.99;90.79;52272.81;5094893;28;19924;-77
2022/06/16 02:46:21;;;;;;;;;;;;;;;-144.99;90.93;52244.28;5089997;28;19935;-78
2022/06/16 02:48:51;;;;;;;;;;;;;;;-144.99;91.10;52268.72;5080513;28;20017;-78
2022/06/16 02:51:21;;;;;;;;;;;;;;;-144.99;91.40;52248.34;5091018;28;19928;-76
2022/06/16 02:53:52;;;;;;;;;;;;;;;-144.99;91.45;52305.41;5083586;28;19928;-78
2022/06/16 02:56:24;;;;;;;;;;;;;;;-144.99;91.85;52276.88;5097740;28;20020;-78
2022/06/16 02:58:51;;;;;;;;;;;;;;;-144.99;91.92;52256.50;5084691;28;19990;-76
2022/06/16 03:01:19;;;;;;;;;;;;;;;-144.99;92.54;52295.22;5084356;28;19998;-78
2022/06/16 03:04:00;;;;;;;;;;;;;;;-144.99;92.31;52285.03;5098510;28;20406;-77
2022/06/16 03:06:28;;;;;;;;;;;;;;;-144.99;92.61;52258.53;5073181;28;20413;-78
2022/06/16 03:08:56;;;;;;;;;;;;;;;-144.99;93.03;52272.81;5084571;28;19925;-77
2022/06/16 03:11:23;;;;;;;;;;;;;;;-144.99;93.31;52289.13;5089396;28;19924;-78
2022/06/16 03:13:49;;;;;;;;;;;;;;;-144.99;93.66;52268.72;5093630;28;19924;-78
2022/06/16 03:16:16;;;;;;;;;;;;;;;-144.99;93.91;52260.56;5100891;28;19928;-78
2022/06/16 03:18:42;;;;;;;;;;;;;;;-144.99;94.18;52260.56;5080883;28;19925;-78
2022/06/16 03:21:09;;;;;;;;;;;;;;;-144.99;94.27;52252.44;5085552;28;19924;-78
2022/06/16 03:23:37;;;;;;;;;;;;;;;-144.99;94.06;52254.47;5088435;28;19994;-77
2022/06/16 03:26:04;;;;;;;;;;;;;;;-144.99;94.34;52289.13;5082814;28;20488;-79
2022/06/16 03:28:31;;;;;;;;;;;;;;;-144.99;94.46;52280.97;5087703;28;19967;-78
2022/06/16 03:30:57;;;;;;;;;;;;;;;-144.99;94.73;52256.50;5099133;28;19935;-80
2022/06/16 03:33:23;;;;;;;;;;;;;;;-144.99;94.47;52301.34;5088467;28;19924;-78
2022/06/16 03:35:50;;;;;;;;;;;;;;;-144.99;94.83;52268.72;5096688;28;20022;-79
2022/06/16 03:38:19;;;;;;;;;;;;;;;-144.99;94.78;52289.13;5084969;28;19948;-79
2022/06/16 03:40:47;;;;;;;;;;;;;;;-144.99;94.60;52260.56;5087383;28;20394;-77
2022/06/16 03:43:14;;;;;;;;;;;;;;;-144.99;94.76;52236.13;5115278;27;19951;-80
2022/06/16 03:45:41;;;;;;;;;;;;;;;-144.99;94.70;52260.56;5123293;22;20729;-69
2022/06/16 03:48:08;;;;;;;;;;;;;;;-144.99;95.14;52289.13;5086092;28;19932;-71
2022/06/16 03:50:34;;;;;;;;;;;;;;;-144.99;95.14;52321.72;5082776;28;19928;-71
2022/06/16 03:53:01;;;;;;;;;;;;;;;-144.99;95.25;52264.66;5088561;28;19982;-72
2022/06/16 03:55:27;;;;;;;;;;;;;;;-144.99;94.98;52268.72;5081143;28;20096;-70
2022/06/16 03:57:55;;;;;;;;;;;;;;;-144.99;94.85;52236.13;5066631;28;19930;-69
2022/06/16 04:00:23;;;;;;;;;;;;;;;-144.99;94.77;52230.00;5068129;28;19924;-70
2022/06/16 04:03:59;;;;;;;;;;;;;;;-144.99;94.63;52268.72;5073717;28;19925;-71
2022/06/16 04:05:38;;;;;;;;;;;;;;;-144.99;94.48;52289.13;5081551;28;19924;-71
2022/06/16 04:08:05;;;;;;;;;;;;;;;-144.99;94.22;52248.34;5070224;28;19928;-71
2022/06/16 04:10:31;;;;;;;;;;;;;;;-144.99;94.04;52248.34;5072525;28;20307;-72
2022/06/16 04:12:59;;;;;;;;;;;;;;;-144.99;93.78;52264.66;5079070;28;19924;-70
2022/06/16 04:15:26;;;;;;;;;;;;;;;-144.99;93.69;52293.19;5075946;28;19924;-72
2022/06/16 04:17:52;;;;;;;;;;;;;;;-144.99;93.35;52256.50;5071888;28;19932;-71
2022/06/16 04:20:19;;;;;;;;;;;;;;;-144.99;93.42;52285.03;5071489;28;19970;-72
2022/06/16 04:22:45;;;;;;;;;;;;;;;-144.99;93.24;52293.19;5070243;28;19936;-73
2022/06/16 04:25:13;;;;;;;;;;;;;;;-144.99;93.95;52287.06;5070913;28;19928;-74
2022/06/16 04:27:40;;;;;;;;;;;;;;;-144.99;93.97;52252.44;5069310;28;19929;-75
2022/06/16 04:30:09;;;;;;;;;;;;;;;-144.99;93.91;52252.44;5068275;28;19986;-75
2022/06/16 04:32:36;;;;;;;;;;;;;;;-144.99;93.73;52276.88;5068715;28;20131;-75
2022/06/16 04:35:03;;;;;;;;;;;;;;;-144.99;93.55;52240.19;5083568;28;19932;-74
2022/06/16 04:37:29;;;;;;;;;;;;;;;-144.99;93.55;52260.56;5072364;28;20402;-76
2022/06/16 04:39:56;;;;;;;;;;;;;;;-144.99;93.31;52252.44;5078978;28;19936;-75
2022/06/16 04:42:23;;;;;;;;;;;;;;;-144.99;93.25;52236.13;5082201;28;20403;-75
2022/06/16 04:44:49;;;;;;;;;;;;;;;-144.99;92.77;52248.34;5073356;28;19925;-74
2022/06/16 04:47:17;;;;;;;;;;;;;;;-144.99;93.63;52240.19;5087960;28;19928;-75
2022/06/16 04:49:48;;;;;;;;;;;;;;;-144.99;93.36;52209.63;5088494;28;19955;-75
2022/06/16 04:52:15;;;;;;;;;;;;;;;-144.99;92.51;52219.81;5082194;28;20019;-76
2022/06/16 04:54:44;;;;;;;;;;;;;;;-144.99;92.87;52276.88;5073927;28;20122;-76
2022/06/16 04:57:10;;;;;;;;;;;;;;;-144.99;92.28;52256.50;5073417;28;20006;-75
2022/06/16 04:59:37;;;;;;;;;;;;;;;-144.99;92.27;52227.97;5080731;28;19935;-74
2022/06/16 05:02:04;;;;;;;;;;;;;;;-144.99;92.66;52240.19;5071392;28;19932;-76
2022/06/16 05:04:32;;;;;;;;;;;;;;;-144.99;91.89;52260.56;5078703;28;19924;-76
2022/06/16 05:06:59;;;;;;;;;;;;;;;-144.99;90.68;52219.81;5072747;28;19925;-75
2022/06/16 05:09:26;;;;;;;;;;;;;;;-144.99;90.39;52219.81;5081240;28;19931;-75
2022/06/16 05:11:52;;;;;;;;;;;;;;;-144.99;89.88;52227.97;5079646;28;19933;-76
2022/06/16 05:14:20;;;;;;;;;;;;;;;-144.99;89.35;52234.09;5074833;28;20410;-74
2022/06/16 05:16:47;;;;;;;;;;;;;;;-144.99;88.45;52244.28;4363268;28;10000737;-75
2022/06/16 05:19:14;;;;;;;;;;;;;;;-144.99;87.94;52232.03;5072762;28;19935;-75
2022/06/16 05:21:41;;;;;;;;;;;;;;;-144.99;87.42;52234.09;5066651;28;20372;-76
2022/06/16 05:24:08;;;;;;;;;;;;;;;-144.99;86.94;52264.66;5066191;28;19928;-75
2022/06/16 05:26:35;;;;;;;;;;;;;;;-144.99;86.67;52252.44;5060380;28;19955;-76
2022/06/16 05:29:01;;;;;;;;;;;;;;;-144.99;86.39;52256.50;5064793;28;19929;-74
2022/06/16 05:31:28;;;;;;;;;;;;;;;-144.99;86.10;52264.66;5076547;28;19935;-73
2022/06/16 05:33:55;;;;;;;;;;;;;;;-144.99;85.10;52262.63;5075196;28;19927;-75
2022/06/16 05:36:21;;;;;;;;;;;;;;;-144.99;84.79;52227.97;5060754;28;19932;-74
2022/06/16 05:38:49;;;;;;;;;;;;;;;-144.99;84.58;52248.34;5064854;28;19928;-73
2022/06/16 05:41:16;;;;;;;;;;;;;;;-144.99;83.85;52225.94;5071265;28;19982;-73
2022/06/16 05:43:43;;;;;;;;;;;;;;;-144.99;82.04;52236.13;5075021;28;19935;-73
2022/06/16 05:46:14;;;;;;;;;;;;;;;-144.99;82.71;52234.09;5061938;28;19974;-74
2022/06/16 05:48:41;;;;;;;;;;;;;;;-144.99;81.92;52248.34;5081162;28;19939;-76
2022/06/16 05:51:09;;;;;;;;;;;;;;;-144.99;81.75;52207.59;5070069;28;19932;-76
2022/06/16 05:53:36;;;;;;;;;;;;;;;-144.99;81.92;52250.38;5068515;28;19935;-72
2022/06/16 05:56:04;;;;;;;;;;;;;;;-144.99;81.83;52244.28;5064671;28;19928;-73
2022/06/16 05:58:30;;;;;;;;;;;;;;;-144.99;81.71;52236.13;5069917;28;20364;-74
2022/06/16 06:00:57;;;;;;;;;;;;;;;-144.99;81.33;52205.53;5072114;28;19936;-76
2022/06/16 06:03:24;;;;;;;;;;;;;;;-144.99;81.54;52219.81;5085421;28;20171;-73
2022/06/16 06:05:50;;;;;;;;;;;;;;;-144.99;80.85;52223.88;5072530;28;19974;-74
2022/06/16 06:16:35;;;;;;;;;;;;;;;-144.99;76.58;52187.19;5079322;28;20000;-73
2022/06/16 06:19:23;;;;;;;;;;;;;;;-144.99;75.69;52215.75;5077706;28;19963;-75
2022/06/16 06:22:02;;;;;;;;;;;;;;;-144.99;73.85;52219.81;5088174;28;19943;-75
2022/06/16 06:24:30;;;;;;;;;;;;;;;-144.99;72.65;52211.66;5087189;28;19912;-74
2022/06/16 06:26:58;;;;;;;;;;;;;;;-144.99;71.75;52223.88;5095434;28;19940;-76
2022/06/16 06:29:26;;;;;;;;;;;;;;;-144.99;70.88;52211.66;5084368;28;20016;-75
2022/06/16 06:31:53;;;;;;;;;;;;;;;-144.99;68.74;52183.13;5097441;28;19923;-76
2022/06/16 06:34:19;;;;;;;;;;;;;;;-144.99;67.71;52193.31;5103457;28;19928;-75
2022/06/16 06:36:47;;;;;;;;;;;;;;;-144.99;66.78;52199.44;5101273;28;19912;-75
2022/06/16 06:39:13;;;;;;;;;;;;;;;-144.99;65.74;52183.13;5089881;28;19913;-78
2022/06/16 06:41:40;;;;;;;;;;;;;;;-144.99;64.25;52195.34;5094805;28;19995;-76
2022/06/16 06:44:06;;;;;;;;;;;;;;;-144.99;63.47;52181.09;5100526;28;19945;-77
2022/06/16 06:46:34;;;;;;;;;;;;;;;-144.99;62.90;52191.28;5097877;28;19912;-75
2022/06/16 06:49:02;;;;;;;;;;;;;;;-144.99;61.07;52156.63;5086512;28;19938;-76
2022/06/16 06:51:28;;;;;;;;;;;;;;;-144.99;59.37;52189.25;5095102;28;20034;-75
2022/06/16 06:53:55;;;;;;;;;;;;;;;-144.99;58.39;52187.19;4747705;28;9999979;-75
2022/06/16 06:56:21;;;;;;;;;;;;;;;-144.99;57.48;52170.91;5101137;28;20017;-76
2022/06/16 06:58:48;;;;;;;;;;;;;;;-144.99;56.75;52154.59;5101558;28;19964;-74
2022/06/16 07:01:15;;;;;;;;;;;;;;;-144.99;56.11;52170.91;5090803;28;19912;-76
2022/06/16 07:03:42;;;;;;;;;;;;;;;-144.99;55.53;52158.66;5102673;28;19929;-76
2022/06/16 07:06:09;;;;;;;;;;;;;;;-144.99;54.10;52154.59;5108294;28;19919;-74
2022/06/16 07:08:36;;;;;;;;;;;;;;;-144.99;53.51;52174.97;5101257;28;19913;-77
2022/06/16 07:11:02;;;;;;;;;;;;;;;-144.99;53.11;52142.38;5104543;28;19928;-75
2022/06/16 07:13:29;;;;;;;;;;;;;;;-144.99;51.61;52154.59;5101046;28;19926;-75
2022/06/16 07:15:55;;;;;;;;;;;;;;;-144.99;50.61;52150.53;5100307;28;19931;-75
2022/06/16 07:18:22;;;;;;;;;;;;;;;-144.99;50.13;52154.59;5101933;28;19932;-75
2022/06/16 07:20:51;;;;;;;;;;;;;;;-144.99;49.82;52130.13;5088808;28;19931;-77
2022/06/16 07:23:19;;;;;;;;;;;;;;;-144.99;48.82;52172.94;5099442;28;19935;-77
2022/06/16 07:25:46;;;;;;;;;;;;;;;-144.99;48.26;52146.44;5103783;28;19942;-77
2022/06/16 07:28:13;;;;;;;;;;;;;;;-144.99;47.73;52158.66;5101649;28;19939;-77
2022/06/16 07:30:40;;;;;;;;;;;;;;;-144.99;47.82;52199.44;5091671;28;19912;-77
2022/06/16 07:33:07;;;;;;;;;;;;;;;-144.99;47.92;52140.31;5093968;28;20068;-78
2022/06/16 07:35:34;;;;;;;;;;;;;;;-144.99;48.00;52197.41;5106345;28;19932;-77
2022/06/16 07:38:02;;;;;;;;;;;;;;;-144.99;48.34;52156.63;5102000;28;19936;-78
2022/06/16 07:40:29;;;;;;;;;;;;;;;-144.99;48.35;52170.91;5103801;28;19958;-78
2022/06/16 07:42:56;;;;;;;;;;;;;;;-144.99;48.07;52154.59;5094569;28;19935;-77
2022/06/16 07:45:23;;;;;;;;;;;;;;;-144.99;47.68;52109.75;5092562;28;20012;-75
2022/06/16 07:47:50;;;;;;;;;;;;;;;-144.99;47.29;52162.75;5090153;28;20372;-73
2022/06/16 07:50:17;;;;;;;;;;;;;;;-144.99;47.04;52154.59;5070060;28;19932;-74
2022/06/16 07:52:44;;;;;;;;;;;;;;;-144.99;46.79;52162.75;5070130;28;19929;-74
2022/06/16 07:55:12;;;;;;;;;;;;;;;-144.99;46.72;52126.06;5076674;28;19981;-76
2022/06/16 07:57:42;;;;;;;;;;;;;;;-144.99;46.34;52162.75;5072762;28;19967;-74
2022/06/16 08:00:11;;;;;;;;;;;;;;;-144.99;46.61;52174.97;5073974;28;20925;-74
2022/06/16 08:02:38;;;;;;;;;;;;;;;-144.99;46.27;52152.56;5064998;28;19928;-74
2022/06/16 08:05:05;;;;;;;;;;;;;;;-144.99;46.13;52134.22;5072538;28;19939;-74
2022/06/16 08:07:31;;;;;;;;;;;;;;;-144.99;45.99;52152.56;5073714;28;19938;-74
2022/06/16 08:09:58;;;;;;;;;;;;;;;-144.99;46.11;52142.38;5069841;28;19935;-74
2022/06/16 08:12:26;;;;;;;;;;;;;;;-144.99;46.04;52130.13;5067685;28;20332;-75
2022/06/16 08:14:53;;;;;;;;;;;;;;;-144.99;46.22;52142.38;5070105;28;20383;-74
2022/06/16 08:17:21;;;;;;;;;;;;;;;-144.99;45.58;52146.44;5078318;28;19933;-75
2022/06/16 08:19:47;;;;;;;;;;;;;;;-144.99;45.75;52146.44;5078274;28;19932;-74
2022/06/16 08:22:14;;;;;;;;;;;;;;;-144.99;45.60;52109.75;5069314;28;19928;-74
2022/06/16 08:24:41;;;;;;;;;;;;;;;-144.99;45.47;52126.06;5079751;28;20435;-74
2022/06/16 08:27:08;;;;;;;;;;;;;;;-144.99;44.97;52174.97;5075828;28;20311;-75
2022/06/16 08:29:36;;;;;;;;;;;;;;;-144.99;45.10;52113.84;5075767;28;19928;-75
2022/06/16 08:32:03;;;;;;;;;;;;;;;-144.99;44.97;52134.22;5068950;28;19959;-75
2022/06/16 08:34:29;;;;;;;;;;;;;;;-144.99;44.79;52111.78;5068094;28;19971;-76
2022/06/16 08:36:56;;;;;;;;;;;;;;;-144.99;44.60;52109.75;5081962;28;20005;-74
2022/06/16 08:39:22;;;;;;;;;;;;;;;-144.99;44.33;52093.44;5077102;28;19935;-74
2022/06/16 08:41:50;;;;;;;;;;;;;;;-144.99;44.06;52126.06;5066206;28;19998;-75
2022/06/16 08:44:21;;;;;;;;;;;;;;;-144.99;43.75;52107.72;5066083;28;19928;-76
2022/06/16 08:46:54;;;;;;;;;;;;;;;-144.99;44.39;52138.28;5073865;28;19981;-76
2022/06/16 08:49:27;;;;;;;;;;;;;;;-144.99;43.76;52073.06;5071457;28;20356;-74
2022/06/16 08:52:11;;;;;;;;;;;;;;;-144.99;43.95;52081.22;5067353;28;19929;-73
2022/06/16 08:54:45;;;;;;;;;;;;;;;-144.99;43.70;52109.75;5063332;28;19975;-75
2022/06/16 08:57:15;;;;;;;;;;;;;;;-144.99;43.41;52130.13;5066877;28;20019;-74
2022/06/16 08:59:49;;;;;;;;;;;;;;;-144.99;43.80;52105.69;5077065;28;19928;-73
2022/06/16 09:02:19;;;;;;;;;;;;;;;-144.99;43.24;52109.75;5069706;28;19956;-75
2022/06/16 09:04:49;;;;;;;;;;;;;;;-144.99;43.23;52105.69;5066635;28;20310;-75
2022/06/16 09:07:24;;;;;;;;;;;;;;;-144.99;42.97;52085.31;5070436;28;19943;-76
2022/06/16 09:12:46;;;;;;;;;;;;;;;-144.99;42.91;52089.38;5066325;28;19977;-76
2022/06/16 09:15:20;;;;;;;;;;;;;;;-144.99;41.44;52093.44;5062734;28;19928;-75
2022/06/16 09:17:59;;;;;;;;;;;;;;;-144.99;41.73;52093.44;5071821;28;19935;-75
2022/06/16 09:20:31;;;;;;;;;;;;;;;-144.99;41.27;52081.22;5073344;28;20012;-73
2022/06/16 09:23:05;;;;;;;;;;;;;;;-144.99;41.59;52071.03;5062259;28;20334;-76
2022/06/16 09:25:40;;;;;;;;;;;;;;;-144.99;41.45;52093.44;5059497;28;19932;-76
2022/06/16 09:28:10;;;;;;;;;;;;;;;-144.99;41.74;52073.06;5071575;28;19971;-75
2022/06/16 09:30:39;;;;;;;;;;;;;;;-144.99;41.17;52121.97;5075175;28;20385;-75
2022/06/16 09:33:11;;;;;;;;;;;;;;;-144.99;41.42;52073.06;5062066;28;19928;-75
2022/06/16 09:35:41;;;;;;;;;;;;;;;-144.99;41.31;52040.47;5075026;28;19935;-76
2022/06/16 09:44:15;;;;;;;;;;;;;;;-144.99;40.85;52073.06;5070909;28;19981;-76
2022/06/16 09:46:46;;;;;;;;;;;;;;;-144.99;40.63;52085.31;5074292;22;19928;-72
2022/06/16 09:49:15;;;;;;;;;;;;;;;-144.99;40.85;52081.22;5063046;28;19963;-74
2022/06/16 09:51:45;;;;;;;;;;;;;;;-144.99;40.63;52060.84;5059607;28;19982;-74
2022/06/16 09:54:14;;;;;;;;;;;;;;;-144.99;40.22;52052.69;5052706;28;20567;-73
2022/06/16 09:56:43;;;;;;;;;;;;;;;-144.99;40.18;52064.91;5058785;28;19941;-73
2022/06/16 09:59:11;;;;;;;;;;;;;;;-144.99;39.88;52081.22;5061249;28;25188;-73
2022/06/16 10:01:42;;;;;;;;;;;;;;;-144.99;39.76;52056.78;5059317;28;19929;-72
2022/06/16 10:04:09;;;;;;;;;;;;;;;-144.99;39.81;52009.91;5051467;28;19955;-74
2022/06/16 10:06:39;;;;;;;;;;;;;;;-144.99;39.59;52066.97;5060392;28;20768;-72
2022/06/16 10:09:12;;;;;;;;;;;;;;;-144.99;38.97;52073.06;5059802;28;19932;-75
2022/06/16 10:11:44;;;;;;;;;;;;;;;-144.99;39.68;52077.16;5052744;28;19936;-73
2022/06/16 10:14:15;;;;;;;;;;;;;;;-144.99;39.83;52030.28;5060611;28;19928;-72
2022/06/16 10:16:46;;;;;;;;;;;;;;;-144.99;40.27;52060.84;5064627;28;24447;-73
2022/06/16 10:19:13;;;;;;;57.65;54.10;;;;;;;-144.99;40.31;52069.00;5058114;28;19920;-73
2022/06/16 10:21:41;;;;;;;;;;;;;;;-144.99;40.17;52081.22;5066425;28;20208;-73
2022/06/16 10:24:08;;;;;;;;;;;;;;;-144.99;40.21;52064.91;4705209;28;9999632;-76
2022/06/16 10:26:35;;;;;;;;;;;;;;;-144.99;39.88;52040.47;5067252;28;20474;-73
2022/06/16 10:29:06;;;;;;;;;;;;;;;-144.99;39.16;52028.22;5071369;28;19920;-73
2022/06/16 10:31:35;;;;;;;;;;;;;;;-144.99;39.02;52007.84;5058033;28;20029;-75
2022/06/16 10:34:03;;;;;;;;;;;;;;;-144.99;38.71;52073.06;5060446;28;20395;-75
2022/06/16 10:36:30;;;;;;;;;;;;;;;-144.99;38.54;52040.47;5066005;28;19924;-74
2022/06/16 10:39:09;;;;;;;;;;;;;;;-144.99;38.42;52044.53;5064325;28;19925;-75
2022/06/16 10:41:40;;;;;;;;;;;;;;;-144.99;38.16;52050.66;5059804;28;20062;-73
2022/06/16 10:44:11;;;;;;;;;;;;;;;-144.99;38.64;52060.84;5063459;28;19932;-74
2022/06/16 10:46:44;;;;;;;;;;;;;;;-144.99;38.70;52069.00;5064529;28;19920;-75
2022/06/16 10:49:15;;;;;;;;;;;;;;;-144.99;38.20;52016.00;5064944;28;20310;-75
2022/06/16 10:51:50;;;;;;;;;;;;;;;-144.99;37.35;51979.31;5060685;28;20436;-75
2022/06/16 10:54:21;;;;;;;;;;;;;;;-144.99;36.99;52007.84;5063404;28;19924;-76
2022/06/16 10:56:48;;;;;;;;;;;;;;;-144.99;37.58;52064.91;5076908;28;19931;-75
2022/06/16 10:59:19;;;;;;;;;;;;;;;-144.99;37.09;51969.13;5074604;28;19924;-75
2022/06/16 11:01:47;;;;;;;;;;;;;;;-144.99;37.30;52024.16;5053609;28;19994;-75
2022/06/16 11:04:18;;;;;;;;;;;;;;;-144.99;36.99;52016.00;5065957;28;19962;-75
2022/06/16 11:06:47;;;;;;;;;;;;;;;-144.99;36.63;52028.22;5079728;28;19928;-75
2022/06/16 11:09:18;;;;;;;;;;;;;;;-144.99;36.77;52018.03;5072594;28;19977;-75
2022/06/16 11:11:52;;;;;;;;;;;;;;;-144.99;37.02;52044.53;5067883;28;19921;-76
2022/06/16 11:14:21;;;;;;;;;;;;;;;-144.99;37.11;52042.50;5064293;28;19977;-75
2022/06/16 11:16:50;;;;;;;;;;;;;;;-144.99;37.21;52060.84;5072214;28;20371;-75
2022/06/16 11:19:19;;;;;;;;;;;;;;;-144.99;37.29;52048.63;5060779;28;19951;-74
2022/06/16 11:21:46;;;;;;;;;;;;;;;-144.99;36.89;51981.38;5068851;28;20027;-75
2022/06/16 11:24:22;;;;;;;;;;;;;;;-144.99;36.96;52032.31;5059572;28;19932;-73
2022/06/16 11:26:53;;;;;;;;;;;;;;;-144.99;36.05;52052.69;5067972;28;19932;-75
2022/06/16 11:29:25;;;;;;;;;;;;;;;-144.99;36.43;52020.09;5058543;28;19924;-74
2022/06/16 11:32:02;;;;;;;;;;;;;;;-144.99;37.01;52020.09;5074259;28;19951;-74
2022/06/16 11:34:29;;;;;;;;;;;;;;;-144.99;37.23;51987.47;5069415;28;19924;-73
2022/06/16 11:37:03;;;;;;;;;;;;;;;-144.99;37.43;52064.91;5068899;28;19920;-75
2022/06/16 11:39:36;;;;;;;;;;;;;;;-144.99;37.42;52048.63;5062240;28;19928;-74
2022/06/16 11:42:04;;;;;;;;;;;;;;;-144.99;36.92;51965.06;5054369;28;19986;-75
2022/06/16 11:44:44;;;;;;;;;;;;;;;-144.99;36.65;51956.91;5068745;28;19927;-76
2022/06/16 11:47:20;;;;;;;;;;;;;;;-144.99;35.94;52016.00;5078166;28;19924;-74
2022/06/16 11:49:50;;;;;;;;;;;;;;;-144.99;35.85;52069.00;5064901;28;19931;-75
2022/06/16 11:52:21;;;;;;;;;;;;;;;-144.99;36.24;52056.78;5065646;28;19928;-75
2022/06/16 11:54:55;;;;;;;;;;;;;;;-144.99;36.13;51975.25;5065326;28;19927;-73
2022/06/16 11:57:27;;;;;;;;;;;;;;;-144.99;35.97;52069.00;5071573;28;19927;-74
2022/06/16 12:00:12;;;;;;;;;;;;;;;-144.99;36.00;52040.47;5061564;28;19947;-75
2022/06/16 12:02:56;;;;;;;;;;;;;;;-144.99;36.17;52075.09;5038820;28;19930;-75
2022/06/16 12:05:33;;;;;;;;;;;;;;;-144.99;36.61;52056.78;5055514;28;19928;-74
2022/06/16 12:08:10;;;;;;;;;;;;;;;-144.99;35.89;52058.81;5073403;28;19924;-76
2022/06/16 12:10:41;;;;;;;;;;;;;;;-144.99;36.37;52028.22;5058864;28;20425;-74
2022/06/16 12:13:14;;;;;;;;;;;;;;;-144.99;36.44;51991.56;5067002;28;20379;-73
2022/06/16 12:15:44;;;;;;;;;;;;;;;-144.99;36.53;52007.84;5065631;28;20035;-74
2022/06/16 12:18:18;;;;;;;;;;;;;;;-144.99;36.33;52020.09;5066836;28;19924;-74
2022/06/16 12:20:50;;;;;;;;;;;;;;;-144.99;35.90;52040.47;5066125;28;19977;-73
2022/06/16 12:23:20;;;;;;;;;;;;;;;-144.99;36.32;52077.16;5061941;28;19924;-75
2022/06/16 12:25:52;;;;;;;;;;;;;;;-144.99;36.58;52069.00;5061384;28;19925;-73
2022/06/16 12:28:24;;;;;;;;;;;;;;;-144.99;36.40;52020.09;5068092;28;19993;-74
2022/06/16 12:30:53;;;;;;;;;;;;;;;-144.99;36.70;51987.47;5058544;28;19966;-73
2022/06/16 12:33:25;;;;;;;;;;;;;;;-144.99;36.37;52026.19;5075652;28;19924;-74
2022/06/16 12:35:56;;;;;;;;;;;;;;;-144.99;36.41;52056.78;5065402;28;19930;-76
2022/06/16 12:38:26;;;;;;;;;;;;;;;-144.99;36.68;52073.06;5063047;28;20316;-75
2022/06/16 12:40:55;;;;;;;;;;;;;;;-144.99;36.79;51995.63;5068138;28;19997;-75
2022/06/16 12:43:26;;;;;;;;;;;;;;;-144.99;37.25;52052.69;5055841;28;20438;-75
2022/06/16 12:45:56;;;;;;;;;;;;;;;-144.99;36.91;51975.25;5064111;28;19932;-75
2022/06/16 12:48:26;;;;;;;;;;;;;;;-144.99;37.07;52050.66;5064141;28;20006;-75
2022/06/16 12:50:55;;;;;;;;;;;;;;;-144.99;36.55;52016.00;5064210;28;19924;-74
2022/06/16 12:53:25;;;;;;;;;;;;;;;-144.99;36.99;52018.03;5061358;28;19924;-75
2022/06/16 12:55:54;;;;;;;;;;;;;;;-144.99;37.25;51977.28;5068956;28;19970;-76
2022/06/16 12:58:24;;;;;;;;;;;;;;;-144.99;36.47;52020.09;5067245;28;20325;-74